sensor_id;sensor_type;location;lat;lon;timestamp;temperature;humidity
53264;DHT22;39153;52.680;6.172;2022-07-23T00:01:59;15.30;99.90
53264;DHT22;39153;52.680;6.172;2022-07-23T00:04:25;15.20;99.90
53264;DHT22;39153;52.680;6.172;2022-07-23T00:06:51;15.10;99.90
53264;DHT22;39153;52.680;6.172;2022-07-23T00:09:16;15.10;99.90
53264;DHT22;39153;52.680;6.172;2022-07-23T00:11:42;15.10;99.90
53264;DHT22;39153;52.680;6.172;2022-07-23T00:14:08;15.20;99.90
53264;DHT22;39153;52.680;6.172;2022-07-23T00:16:33;15.10;99.90
53264;DHT22;39153;52.680;6.172;2022-07-23T00:18:59;15.00;99.90
53264;DHT22;39153;52.680;6.172;2022-07-23T00:21:26;15.20;99.90
53264;DHT22;39153;52.680;6.172;2022-07-23T00:23:52;15.10;99.90
53264;DHT22;39153;52.680;6.172;2022-07-23T00:26:18;15.00;99.90
53264;DHT22;39153;52.680;6.172;2022-07-23T00:28:43;15.00;99.90
53264;DHT22;39153;52.680;6.172;2022-07-23T00:31:09;14.80;99.90
53264;DHT22;39153;52.680;6.172;2022-07-23T00:33:35;14.80;99.90
53264;DHT22;39153;52.680;6.172;2022-07-23T00:36:00;14.80;99.90
53264;DHT22;39153;52.680;6.172;2022-07-23T00:38:26;14.70;99.90
53264;DHT22;39153;52.680;6.172;2022-07-23T00:40:52;14.70;99.90
53264;DHT22;39153;52.680;6.172;2022-07-23T00:43:20;14.70;99.90
53264;DHT22;39153;52.680;6.172;2022-07-23T00:45:47;14.70;99.90
53264;DHT22;39153;52.680;6.172;2022-07-23T00:48:13;14.50;99.90
53264;DHT22;39153;52.680;6.172;2022-07-23T00:50:38;14.50;99.90
53264;DHT22;39153;52.680;6.172;2022-07-23T00:53:05;14.50;99.90
53264;DHT22;39153;52.680;6.172;2022-07-23T00:55:31;14.50;99.90
53264;DHT22;39153;52.680;6.172;2022-07-23T00:57:58;14.40;99.90
53264;DHT22;39153;52.680;6.172;2022-07-23T01:00:24;14.40;99.90
53264;DHT22;39153;52.680;6.172;2022-07-23T01:02:50;14.30;99.90
53264;DHT22;39153;52.680;6.172;2022-07-23T01:05:16;14.30;99.90
53264;DHT22;39153;52.680;6.172;2022-07-23T01:07:43;14.20;99.90
53264;DHT22;39153;52.680;6.172;2022-07-23T01:10:09;14.20;99.90
53264;DHT22;39153;52.680;6.172;2022-07-23T01:12:53;14.30;99.90
53264;DHT22;39153;52.680;6.172;2022-07-23T01:15:18;14.20;99.90
53264;DHT22;39153;52.680;6.172;2022-07-23T01:17:44;14.30;99.90
53264;DHT22;39153;52.680;6.172;2022-07-23T01:20:10;14.30;99.90
53264;DHT22;39153;52.680;6.172;2022-07-23T01:22:35;14.30;99.90
53264;DHT22;39153;52.680;6.172;2022-07-23T01:25:01;14.30;99.90
53264;DHT22;39153;52.680;6.172;2022-07-23T01:27:27;14.30;99.90
53264;DHT22;39153;52.680;6.172;2022-07-23T01:29:54;14.30;99.90
53264;DHT22;39153;52.680;6.172;2022-07-23T01:32:20;14.30;99.90
53264;DHT22;39153;52.680;6.172;2022-07-23T01:34:45;14.30;99.90
53264;DHT22;39153;52.680;6.172;2022-07-23T01:37:11;14.30;99.90
53264;DHT22;39153;52.680;6.172;2022-07-23T01:39:37;14.30;99.90
53264;DHT22;39153;52.680;6.172;2022-07-23T01:42:02;14.20;99.90
53264;DHT22;39153;52.680;6.172;2022-07-23T01:44:28;14.30;99.90
53264;DHT22;39153;52.680;6.172;2022-07-23T01:46:56;14.20;99.90
53264;DHT22;39153;52.680;6.172;2022-07-23T01:49:21;14.20;99.90
53264;DHT22;39153;52.680;6.172;2022-07-23T01:51:47;14.30;99.90
53264;DHT22;39153;52.680;6.172;2022-07-23T01:54:29;14.40;99.90
53264;DHT22;39153;52.680;6.172;2022-07-23T01:56:55;14.30;99.90
53264;DHT22;39153;52.680;6.172;2022-07-23T01:59:22;14.30;99.90
53264;DHT22;39153;52.680;6.172;2022-07-23T02:01:47;14.40;99.90
53264;DHT22;39153;52.680;6.172;2022-07-23T02:04:19;14.40;99.90
53264;DHT22;39153;52.680;6.172;2022-07-23T02:06:45;14.40;99.90
53264;DHT22;39153;52.680;6.172;2022-07-23T02:09:11;14.50;99.90
53264;DHT22;39153;52.680;6.172;2022-07-23T02:11:37;14.40;99.90
53264;DHT22;39153;52.680;6.172;2022-07-23T02:14:02;14.40;99.90
53264;DHT22;39153;52.680;6.172;2022-07-23T02:16:28;14.40;99.90
53264;DHT22;39153;52.680;6.172;2022-07-23T02:18:55;14.40;99.90
53264;DHT22;39153;52.680;6.172;2022-07-23T02:21:21;14.20;99.90
53264;DHT22;39153;52.680;6.172;2022-07-23T02:23:46;14.30;99.90
53264;DHT22;39153;52.680;6.172;2022-07-23T02:26:12;14.30;99.90
53264;DHT22;39153;52.680;6.172;2022-07-23T02:28:38;14.20;99.90
53264;DHT22;39153;52.680;6.172;2022-07-23T02:31:03;14.20;99.90
53264;DHT22;39153;52.680;6.172;2022-07-23T02:33:29;14.10;99.90
53264;DHT22;39153;52.680;6.172;2022-07-23T02:35:55;14.10;99.90
53264;DHT22;39153;52.680;6.172;2022-07-23T02:38:21;14.10;99.90
53264;DHT22;39153;52.680;6.172;2022-07-23T02:40:46;14.10;99.90
53264;DHT22;39153;52.680;6.172;2022-07-23T02:43:12;14.10;99.90
53264;DHT22;39153;52.680;6.172;2022-07-23T02:45:38;14.00;99.90
53264;DHT22;39153;52.680;6.172;2022-07-23T02:48:04;13.90;99.90
53264;DHT22;39153;52.680;6.172;2022-07-23T02:50:29;13.90;99.90
53264;DHT22;39153;52.680;6.172;2022-07-23T02:52:55;13.80;99.90
53264;DHT22;39153;52.680;6.172;2022-07-23T02:55:21;13.80;99.90
53264;DHT22;39153;52.680;6.172;2022-07-23T02:57:46;13.80;99.90
53264;DHT22;39153;52.680;6.172;2022-07-23T03:00:12;13.80;99.90
53264;DHT22;39153;52.680;6.172;2022-07-23T03:02:38;13.70;99.90
53264;DHT22;39153;52.680;6.172;2022-07-23T03:05:05;13.60;99.90
53264;DHT22;39153;52.680;6.172;2022-07-23T03:07:30;13.60;99.90
53264;DHT22;39153;52.680;6.172;2022-07-23T03:09:56;13.50;99.90
53264;DHT22;39153;52.680;6.172;2022-07-23T03:12:22;13.50;99.90
53264;DHT22;39153;52.680;6.172;2022-07-23T03:14:47;13.40;99.90
53264;DHT22;39153;52.680;6.172;2022-07-23T03:17:13;13.50;99.90
53264;DHT22;39153;52.680;6.172;2022-07-23T03:19:38;13.50;99.90
53264;DHT22;39153;52.680;6.172;2022-07-23T03:22:04;13.40;99.90
53264;DHT22;39153;52.680;6.172;2022-07-23T03:24:30;13.40;99.90
53264;DHT22;39153;52.680;6.172;2022-07-23T03:27:15;13.50;99.90
53264;DHT22;39153;52.680;6.172;2022-07-23T03:29:40;13.30;99.90
53264;DHT22;39153;52.680;6.172;2022-07-23T03:32:06;13.20;99.90
53264;DHT22;39153;52.680;6.172;2022-07-23T03:34:32;13.20;99.90
53264;DHT22;39153;52.680;6.172;2022-07-23T03:36:58;13.10;99.90
53264;DHT22;39153;52.680;6.172;2022-07-23T03:39:23;13.20;99.90
53264;DHT22;39153;52.680;6.172;2022-07-23T03:41:49;13.10;99.90
53264;DHT22;39153;52.680;6.172;2022-07-23T03:44:15;13.10;99.90
53264;DHT22;39153;52.680;6.172;2022-07-23T03:46:40;13.10;99.90
53264;DHT22;39153;52.680;6.172;2022-07-23T03:49:06;13.10;99.90
53264;DHT22;39153;52.680;6.172;2022-07-23T03:51:32;13.00;99.90
53264;DHT22;39153;52.680;6.172;2022-07-23T03:53:57;12.90;99.90
53264;DHT22;39153;52.680;6.172;2022-07-23T03:56:23;12.90;99.90
53264;DHT22;39153;52.680;6.172;2022-07-23T03:58:49;12.90;99.90
53264;DHT22;39153;52.680;6.172;2022-07-23T04:01:15;12.90;99.90
53264;DHT22;39153;52.680;6.172;2022-07-23T04:03:41;13.00;99.90
53264;DHT22;39153;52.680;6.172;2022-07-23T04:06:07;13.00;99.90
53264;DHT22;39153;52.680;6.172;2022-07-23T04:08:32;13.00;99.90
53264;DHT22;39153;52.680;6.172;2022-07-23T04:10:58;13.00;99.90
53264;DHT22;39153;52.680;6.172;2022-07-23T04:13:24;13.00;99.90
53264;DHT22;39153;52.680;6.172;2022-07-23T04:15:50;12.90;99.90
53264;DHT22;39153;52.680;6.172;2022-07-23T04:18:17;12.90;99.90
53264;DHT22;39153;52.680;6.172;2022-07-23T04:20:44;12.90;99.90
53264;DHT22;39153;52.680;6.172;2022-07-23T04:23:09;12.90;99.90
53264;DHT22;39153;52.680;6.172;2022-07-23T04:25:35;13.00;99.90
53264;DHT22;39153;52.680;6.172;2022-07-23T04:28:01;12.90;99.90
53264;DHT22;39153;52.680;6.172;2022-07-23T04:30:27;13.00;99.90
53264;DHT22;39153;52.680;6.172;2022-07-23T04:32:53;13.10;99.90
53264;DHT22;39153;52.680;6.172;2022-07-23T04:35:18;13.10;99.90
53264;DHT22;39153;52.680;6.172;2022-07-23T04:37:44;13.30;99.90
53264;DHT22;39153;52.680;6.172;2022-07-23T04:40:11;13.30;99.90
53264;DHT22;39153;52.680;6.172;2022-07-23T04:42:37;13.30;99.90
53264;DHT22;39153;52.680;6.172;2022-07-23T04:45:03;13.40;99.90
53264;DHT22;39153;52.680;6.172;2022-07-23T04:47:29;13.50;99.90
53264;DHT22;39153;52.680;6.172;2022-07-23T04:49:56;13.40;99.90
53264;DHT22;39153;52.680;6.172;2022-07-23T04:52:21;13.40;99.90
53264;DHT22;39153;52.680;6.172;2022-07-23T04:54:47;13.50;99.90
53264;DHT22;39153;52.680;6.172;2022-07-23T04:57:13;13.60;99.90
53264;DHT22;39153;52.680;6.172;2022-07-23T04:59:38;13.50;99.90
53264;DHT22;39153;52.680;6.172;2022-07-23T05:02:04;13.50;99.90
53264;DHT22;39153;52.680;6.172;2022-07-23T05:04:30;13.50;99.90
53264;DHT22;39153;52.680;6.172;2022-07-23T05:06:57;13.50;99.90
53264;DHT22;39153;52.680;6.172;2022-07-23T05:09:23;13.40;99.90
53264;DHT22;39153;52.680;6.172;2022-07-23T05:11:48;13.60;99.90
53264;DHT22;39153;52.680;6.172;2022-07-23T05:14:14;13.60;99.90
53264;DHT22;39153;52.680;6.172;2022-07-23T05:16:40;13.70;99.90
53264;DHT22;39153;52.680;6.172;2022-07-23T05:19:06;13.80;99.90
53264;DHT22;39153;52.680;6.172;2022-07-23T05:21:31;13.80;99.90
53264;DHT22;39153;52.680;6.172;2022-07-23T05:23:57;13.80;99.90
53264;DHT22;39153;52.680;6.172;2022-07-23T05:26:23;13.90;99.90
53264;DHT22;39153;52.680;6.172;2022-07-23T05:28:50;14.00;99.90
53264;DHT22;39153;52.680;6.172;2022-07-23T05:31:16;14.10;99.90
53264;DHT22;39153;52.680;6.172;2022-07-23T05:33:41;14.20;99.90
53264;DHT22;39153;52.680;6.172;2022-07-23T05:36:07;14.20;99.90
53264;DHT22;39153;52.680;6.172;2022-07-23T05:38:33;14.30;99.90
53264;DHT22;39153;52.680;6.172;2022-07-23T05:40:59;14.40;99.90
53264;DHT22;39153;52.680;6.172;2022-07-23T05:43:25;14.40;99.90
53264;DHT22;39153;52.680;6.172;2022-07-23T05:45:51;14.50;99.90
53264;DHT22;39153;52.680;6.172;2022-07-23T05:48:16;14.50;99.90
53264;DHT22;39153;52.680;6.172;2022-07-23T05:50:42;14.70;99.90
53264;DHT22;39153;52.680;6.172;2022-07-23T05:53:08;14.70;99.90
53264;DHT22;39153;52.680;6.172;2022-07-23T05:55:33;14.70;99.90
53264;DHT22;39153;52.680;6.172;2022-07-23T05:57:59;14.80;99.90
53264;DHT22;39153;52.680;6.172;2022-07-23T06:00:25;14.80;99.90
53264;DHT22;39153;52.680;6.172;2022-07-23T06:02:51;15.00;99.90
53264;DHT22;39153;52.680;6.172;2022-07-23T06:05:17;14.90;99.90
53264;DHT22;39153;52.680;6.172;2022-07-23T06:07:43;15.00;99.90
53264;DHT22;39153;52.680;6.172;2022-07-23T06:10:09;15.10;99.90
53264;DHT22;39153;52.680;6.172;2022-07-23T06:12:35;15.20;99.90
53264;DHT22;39153;52.680;6.172;2022-07-23T06:15:01;15.30;99.90
53264;DHT22;39153;52.680;6.172;2022-07-23T06:17:27;15.30;99.90
53264;DHT22;39153;52.680;6.172;2022-07-23T06:19:53;15.30;99.90
53264;DHT22;39153;52.680;6.172;2022-07-23T06:22:19;15.40;99.90
53264;DHT22;39153;52.680;6.172;2022-07-23T06:24:45;15.40;99.90
53264;DHT22;39153;52.680;6.172;2022-07-23T06:27:10;15.40;99.90
53264;DHT22;39153;52.680;6.172;2022-07-23T06:29:36;15.50;99.90
53264;DHT22;39153;52.680;6.172;2022-07-23T06:32:02;15.60;99.90
53264;DHT22;39153;52.680;6.172;2022-07-23T06:34:28;15.60;99.90
53264;DHT22;39153;52.680;6.172;2022-07-23T06:36:53;15.70;99.90
53264;DHT22;39153;52.680;6.172;2022-07-23T06:39:19;15.80;99.90
53264;DHT22;39153;52.680;6.172;2022-07-23T06:41:45;15.80;99.90
53264;DHT22;39153;52.680;6.172;2022-07-23T06:44:11;15.90;99.90
53264;DHT22;39153;52.680;6.172;2022-07-23T06:46:36;16.00;99.90
53264;DHT22;39153;52.680;6.172;2022-07-23T06:49:02;16.00;99.90
53264;DHT22;39153;52.680;6.172;2022-07-23T06:51:29;16.10;99.90
53264;DHT22;39153;52.680;6.172;2022-07-23T06:53:55;16.10;99.90
53264;DHT22;39153;52.680;6.172;2022-07-23T06:56:20;16.10;99.90
53264;DHT22;39153;52.680;6.172;2022-07-23T06:58:46;16.30;99.90
53264;DHT22;39153;52.680;6.172;2022-07-23T07:01:12;16.40;99.90
53264;DHT22;39153;52.680;6.172;2022-07-23T07:03:38;16.50;99.90
53264;DHT22;39153;52.680;6.172;2022-07-23T07:06:03;16.50;99.90
53264;DHT22;39153;52.680;6.172;2022-07-23T07:08:29;16.70;99.90
53264;DHT22;39153;52.680;6.172;2022-07-23T07:10:55;16.70;99.90
53264;DHT22;39153;52.680;6.172;2022-07-23T07:13:20;16.80;99.90
53264;DHT22;39153;52.680;6.172;2022-07-23T07:15:46;17.00;99.90
53264;DHT22;39153;52.680;6.172;2022-07-23T07:18:11;17.00;99.90
53264;DHT22;39153;52.680;6.172;2022-07-23T07:20:37;17.00;99.90
53264;DHT22;39153;52.680;6.172;2022-07-23T07:23:03;17.10;99.90
53264;DHT22;39153;52.680;6.172;2022-07-23T07:25:28;17.20;99.90
53264;DHT22;39153;52.680;6.172;2022-07-23T07:27:54;17.20;99.90
53264;DHT22;39153;52.680;6.172;2022-07-23T07:30:20;17.20;99.90
53264;DHT22;39153;52.680;6.172;2022-07-23T07:32:45;17.20;99.90
53264;DHT22;39153;52.680;6.172;2022-07-23T07:35:11;17.50;99.90
53264;DHT22;39153;52.680;6.172;2022-07-23T07:37:37;17.50;99.90
53264;DHT22;39153;52.680;6.172;2022-07-23T07:40:03;17.60;99.90
53264;DHT22;39153;52.680;6.172;2022-07-23T07:42:29;17.60;99.90
53264;DHT22;39153;52.680;6.172;2022-07-23T07:44:55;17.50;99.90
53264;DHT22;39153;52.680;6.172;2022-07-23T07:47:20;17.70;99.90
53264;DHT22;39153;52.680;6.172;2022-07-23T07:49:46;17.80;99.90
53264;DHT22;39153;52.680;6.172;2022-07-23T07:52:12;17.90;99.90
53264;DHT22;39153;52.680;6.172;2022-07-23T07:54:37;17.90;99.90
53264;DHT22;39153;52.680;6.172;2022-07-23T07:57:03;17.80;99.90
53264;DHT22;39153;52.680;6.172;2022-07-23T07:59:29;17.70;99.90
53264;DHT22;39153;52.680;6.172;2022-07-23T08:01:54;17.80;99.90
53264;DHT22;39153;52.680;6.172;2022-07-23T08:04:20;17.70;99.90
53264;DHT22;39153;52.680;6.172;2022-07-23T08:06:47;17.60;99.90
53264;DHT22;39153;52.680;6.172;2022-07-23T08:09:12;17.70;99.90
53264;DHT22;39153;52.680;6.172;2022-07-23T08:11:38;17.60;99.90
53264;DHT22;39153;52.680;6.172;2022-07-23T08:14:04;17.70;99.90
53264;DHT22;39153;52.680;6.172;2022-07-23T08:16:29;17.70;99.90
53264;DHT22;39153;52.680;6.172;2022-07-23T08:18:55;18.00;99.90
53264;DHT22;39153;52.680;6.172;2022-07-23T08:21:21;18.10;99.90
53264;DHT22;39153;52.680;6.172;2022-07-23T08:23:47;18.00;99.90
53264;DHT22;39153;52.680;6.172;2022-07-23T08:26:12;17.90;99.90
53264;DHT22;39153;52.680;6.172;2022-07-23T08:28:38;17.90;99.90
53264;DHT22;39153;52.680;6.172;2022-07-23T08:31:04;17.80;99.90
53264;DHT22;39153;52.680;6.172;2022-07-23T08:33:31;18.10;99.90
53264;DHT22;39153;52.680;6.172;2022-07-23T08:35:57;18.10;99.90
53264;DHT22;39153;52.680;6.172;2022-07-23T08:38:22;18.20;99.90
53264;DHT22;39153;52.680;6.172;2022-07-23T08:40:51;18.00;99.90
53264;DHT22;39153;52.680;6.172;2022-07-23T08:43:23;17.90;99.90
53264;DHT22;39153;52.680;6.172;2022-07-23T08:45:51;17.90;99.90
53264;DHT22;39153;52.680;6.172;2022-07-23T08:48:19;18.00;99.90
53264;DHT22;39153;52.680;6.172;2022-07-23T08:50:50;18.30;99.90
53264;DHT22;39153;52.680;6.172;2022-07-23T08:53:17;18.50;99.90
53264;DHT22;39153;52.680;6.172;2022-07-23T08:55:53;18.70;99.90
53264;DHT22;39153;52.680;6.172;2022-07-23T08:58:19;18.90;99.90
53264;DHT22;39153;52.680;6.172;2022-07-23T09:00:46;18.70;99.90
53264;DHT22;39153;52.680;6.172;2022-07-23T09:03:20;18.50;99.90
53264;DHT22;39153;52.680;6.172;2022-07-23T09:05:46;18.40;99.90
53264;DHT22;39153;52.680;6.172;2022-07-23T09:08:16;18.20;99.90
53264;DHT22;39153;52.680;6.172;2022-07-23T09:10:52;18.30;99.90
53264;DHT22;39153;52.680;6.172;2022-07-23T09:15:54;19.00;99.90
53264;DHT22;39153;52.680;6.172;2022-07-23T09:18:32;19.30;99.90
53264;DHT22;39153;52.680;6.172;2022-07-23T09:21:18;19.60;99.90
53264;DHT22;39153;52.680;6.172;2022-07-23T09:26:26;20.00;99.90
53264;DHT22;39153;52.680;6.172;2022-07-23T09:29:01;19.50;99.90
53264;DHT22;39153;52.680;6.172;2022-07-23T09:31:32;19.30;99.90
53264;DHT22;39153;52.680;6.172;2022-07-23T09:34:10;19.50;99.90
53264;DHT22;39153;52.680;6.172;2022-07-23T09:36:37;19.90;99.90
53264;DHT22;39153;52.680;6.172;2022-07-23T09:39:02;20.20;99.90
53264;DHT22;39153;52.680;6.172;2022-07-23T09:44:15;20.50;99.90
53264;DHT22;39153;52.680;6.172;2022-07-23T09:46:42;20.30;99.90
53264;DHT22;39153;52.680;6.172;2022-07-23T09:49:20;20.10;99.90
53264;DHT22;39153;52.680;6.172;2022-07-23T09:51:54;19.90;99.90
53264;DHT22;39153;52.680;6.172;2022-07-23T09:54:24;20.00;99.90
53264;DHT22;39153;52.680;6.172;2022-07-23T09:56:53;20.20;99.90
53264;DHT22;39153;52.680;6.172;2022-07-23T09:59:22;20.40;99.90
53264;DHT22;39153;52.680;6.172;2022-07-23T10:01:48;20.30;99.90
53264;DHT22;39153;52.680;6.172;2022-07-23T10:04:16;20.50;99.90
53264;DHT22;39153;52.680;6.172;2022-07-23T10:06:43;20.60;99.90
53264;DHT22;39153;52.680;6.172;2022-07-23T10:09:12;20.90;99.90
53264;DHT22;39153;52.680;6.172;2022-07-23T10:11:39;21.00;99.90
53264;DHT22;39153;52.680;6.172;2022-07-23T10:14:05;20.70;99.90
53264;DHT22;39153;52.680;6.172;2022-07-23T10:16:31;21.00;99.90
53264;DHT22;39153;52.680;6.172;2022-07-23T10:18:57;21.20;99.90
53264;DHT22;39153;52.680;6.172;2022-07-23T10:21:46;21.00;99.90
53264;DHT22;39153;52.680;6.172;2022-07-23T10:37:52;21.00;99.90
53264;DHT22;39153;52.680;6.172;2022-07-23T10:40:22;21.10;99.90
53264;DHT22;39153;52.680;6.172;2022-07-23T10:42:52;21.10;99.90
53264;DHT22;39153;52.680;6.172;2022-07-23T10:45:32;21.30;99.90
53264;DHT22;39153;52.680;6.172;2022-07-23T10:48:14;20.90;99.90
53264;DHT22;39153;52.680;6.172;2022-07-23T10:50:41;21.00;99.90
53264;DHT22;39153;52.680;6.172;2022-07-23T10:57:59;21.30;99.90
53264;DHT22;39153;52.680;6.172;2022-07-23T11:00:29;21.50;99.90
53264;DHT22;39153;52.680;6.172;2022-07-23T11:02:57;21.40;99.90
53264;DHT22;39153;52.680;6.172;2022-07-23T11:05:41;21.70;99.90
53264;DHT22;39153;52.680;6.172;2022-07-23T11:10:47;22.00;99.90
53264;DHT22;39153;52.680;6.172;2022-07-23T11:24:05;22.60;99.90
53264;DHT22;39153;52.680;6.172;2022-07-23T11:34:42;22.20;99.90
53264;DHT22;39153;52.680;6.172;2022-07-23T11:37:26;22.40;99.90
53264;DHT22;39153;52.680;6.172;2022-07-23T11:39:55;22.30;99.90
53264;DHT22;39153;52.680;6.172;2022-07-23T11:42:21;22.70;99.90
53264;DHT22;39153;52.680;6.172;2022-07-23T11:44:47;22.70;99.90
53264;DHT22;39153;52.680;6.172;2022-07-23T11:47:13;22.90;99.90
53264;DHT22;39153;52.680;6.172;2022-07-23T11:49:43;22.90;99.90
53264;DHT22;39153;52.680;6.172;2022-07-23T11:52:16;23.10;99.90
53264;DHT22;39153;52.680;6.172;2022-07-23T11:54:52;23.10;99.90
53264;DHT22;39153;52.680;6.172;2022-07-23T11:57:19;22.90;99.90
53264;DHT22;39153;52.680;6.172;2022-07-23T11:59:47;23.10;99.90
53264;DHT22;39153;52.680;6.172;2022-07-23T12:02:16;23.10;99.90
53264;DHT22;39153;52.680;6.172;2022-07-23T12:04:44;23.20;99.90
53264;DHT22;39153;52.680;6.172;2022-07-23T12:07:33;23.60;99.90
53264;DHT22;39153;52.680;6.172;2022-07-23T12:10:24;23.60;99.70
53264;DHT22;39153;52.680;6.172;2022-07-23T12:12:52;23.40;98.50
53264;DHT22;39153;52.680;6.172;2022-07-23T12:17:52;23.90;99.90
53264;DHT22;39153;52.680;6.172;2022-07-23T12:20:22;24.20;99.70
53264;DHT22;39153;52.680;6.172;2022-07-23T12:22:49;24.40;99.70
53264;DHT22;39153;52.680;6.172;2022-07-23T12:25:18;24.30;98.30
53264;DHT22;39153;52.680;6.172;2022-07-23T12:27:44;24.30;98.90
53264;DHT22;39153;52.680;6.172;2022-07-23T12:30:28;24.00;98.60
53264;DHT22;39153;52.680;6.172;2022-07-23T12:32:55;24.30;97.40
53264;DHT22;39153;52.680;6.172;2022-07-23T12:35:23;24.30;99.30
53264;DHT22;39153;52.680;6.172;2022-07-23T12:38:09;24.70;98.10
53264;DHT22;39153;52.680;6.172;2022-07-23T12:40:41;24.80;98.70
53264;DHT22;39153;52.680;6.172;2022-07-23T12:43:10;24.90;98.60
53264;DHT22;39153;52.680;6.172;2022-07-23T12:53:17;24.70;99.10
53264;DHT22;39153;52.680;6.172;2022-07-23T12:55:44;24.90;97.20
53264;DHT22;39153;52.680;6.172;2022-07-23T12:58:20;24.70;97.90
53264;DHT22;39153;52.680;6.172;2022-07-23T13:03:40;25.10;96.40
53264;DHT22;39153;52.680;6.172;2022-07-23T13:06:10;25.50;97.20
53264;DHT22;39153;52.680;6.172;2022-07-23T13:08:38;25.80;97.50
53264;DHT22;39153;52.680;6.172;2022-07-23T13:11:06;25.70;96.80
53264;DHT22;39153;52.680;6.172;2022-07-23T13:13:34;25.80;96.70
53264;DHT22;39153;52.680;6.172;2022-07-23T13:16:00;25.70;96.40
53264;DHT22;39153;52.680;6.172;2022-07-23T13:18:27;25.80;96.00
53264;DHT22;39153;52.680;6.172;2022-07-23T13:20:54;26.20;96.50
53264;DHT22;39153;52.680;6.172;2022-07-23T13:23:20;26.40;97.10
53264;DHT22;39153;52.680;6.172;2022-07-23T13:25:46;26.00;96.70
53264;DHT22;39153;52.680;6.172;2022-07-23T13:28:13;26.40;96.90
53264;DHT22;39153;52.680;6.172;2022-07-23T13:30:40;25.90;95.20
53264;DHT22;39153;52.680;6.172;2022-07-23T13:33:05;26.50;96.00
53264;DHT22;39153;52.680;6.172;2022-07-23T13:35:33;26.30;95.20
53264;DHT22;39153;52.680;6.172;2022-07-23T13:37:58;26.40;95.50
53264;DHT22;39153;52.680;6.172;2022-07-23T13:40:24;26.40;96.40
53264;DHT22;39153;52.680;6.172;2022-07-23T13:42:50;26.50;96.10
53264;DHT22;39153;52.680;6.172;2022-07-23T13:45:16;27.10;95.80
53264;DHT22;39153;52.680;6.172;2022-07-23T13:47:41;26.80;94.80
53264;DHT22;39153;52.680;6.172;2022-07-23T13:50:07;26.90;94.80
53264;DHT22;39153;52.680;6.172;2022-07-23T13:52:33;26.40;94.40
53264;DHT22;39153;52.680;6.172;2022-07-23T13:55:04;26.80;95.10
53264;DHT22;39153;52.680;6.172;2022-07-23T13:57:31;27.20;94.80
53264;DHT22;39153;52.680;6.172;2022-07-23T13:59:57;26.70;94.60
53264;DHT22;39153;52.680;6.172;2022-07-23T14:02:23;26.90;93.20
53264;DHT22;39153;52.680;6.172;2022-07-23T14:04:49;27.20;94.20
53264;DHT22;39153;52.680;6.172;2022-07-23T14:07:15;27.40;94.60
53264;DHT22;39153;52.680;6.172;2022-07-23T14:09:41;27.10;93.70
53264;DHT22;39153;52.680;6.172;2022-07-23T14:12:07;27.10;95.00
53264;DHT22;39153;52.680;6.172;2022-07-23T14:14:34;27.60;94.40
53264;DHT22;39153;52.680;6.172;2022-07-23T14:17:00;27.60;93.70
53264;DHT22;39153;52.680;6.172;2022-07-23T14:19:25;27.20;93.90
53264;DHT22;39153;52.680;6.172;2022-07-23T14:21:51;27.80;93.50
53264;DHT22;39153;52.680;6.172;2022-07-23T14:24:17;28.00;94.00
53264;DHT22;39153;52.680;6.172;2022-07-23T14:26:43;27.90;94.20
53264;DHT22;39153;52.680;6.172;2022-07-23T14:29:09;28.00;92.80
53264;DHT22;39153;52.680;6.172;2022-07-23T14:31:34;27.90;93.00
53264;DHT22;39153;52.680;6.172;2022-07-23T14:34:01;28.10;93.60
53264;DHT22;39153;52.680;6.172;2022-07-23T14:36:27;27.80;93.40
53264;DHT22;39153;52.680;6.172;2022-07-23T14:38:53;27.50;92.50
53264;DHT22;39153;52.680;6.172;2022-07-23T14:41:19;28.40;93.30
53264;DHT22;39153;52.680;6.172;2022-07-23T14:43:44;28.30;92.70
53264;DHT22;39153;52.680;6.172;2022-07-23T14:46:12;28.30;92.10
53264;DHT22;39153;52.680;6.172;2022-07-23T14:48:37;27.70;92.50
53264;DHT22;39153;52.680;6.172;2022-07-23T14:51:03;28.20;92.00
53264;DHT22;39153;52.680;6.172;2022-07-23T14:53:29;27.90;91.70
53264;DHT22;39153;52.680;6.172;2022-07-23T14:55:55;28.10;91.40
53264;DHT22;39153;52.680;6.172;2022-07-23T14:58:23;28.50;92.50
53264;DHT22;39153;52.680;6.172;2022-07-23T15:00:49;28.00;91.50
53264;DHT22;39153;52.680;6.172;2022-07-23T15:03:15;28.20;92.10
53264;DHT22;39153;52.680;6.172;2022-07-23T15:05:40;28.00;92.70
53264;DHT22;39153;52.680;6.172;2022-07-23T15:08:06;28.00;90.80
53264;DHT22;39153;52.680;6.172;2022-07-23T15:10:32;28.10;92.50
53264;DHT22;39153;52.680;6.172;2022-07-23T15:12:57;28.20;91.80
53264;DHT22;39153;52.680;6.172;2022-07-23T15:15:23;28.00;91.40
53264;DHT22;39153;52.680;6.172;2022-07-23T15:17:49;28.30;91.50
53264;DHT22;39153;52.680;6.172;2022-07-23T15:20:14;28.50;91.50
53264;DHT22;39153;52.680;6.172;2022-07-23T15:22:40;29.50;92.00
53264;DHT22;39153;52.680;6.172;2022-07-23T15:25:06;29.80;91.20
53264;DHT22;39153;52.680;6.172;2022-07-23T15:27:32;29.80;90.50
53264;DHT22;39153;52.680;6.172;2022-07-23T15:29:58;29.80;91.40
53264;DHT22;39153;52.680;6.172;2022-07-23T15:32:23;29.80;90.50
53264;DHT22;39153;52.680;6.172;2022-07-23T15:34:52;29.10;89.20
53264;DHT22;39153;52.680;6.172;2022-07-23T15:37:18;29.70;91.50
53264;DHT22;39153;52.680;6.172;2022-07-23T15:39:44;29.60;90.00
53264;DHT22;39153;52.680;6.172;2022-07-23T15:42:10;30.00;91.00
53264;DHT22;39153;52.680;6.172;2022-07-23T15:44:35;29.60;90.50
53264;DHT22;39153;52.680;6.172;2022-07-23T15:47:01;29.80;88.10
53264;DHT22;39153;52.680;6.172;2022-07-23T15:49:27;29.60;87.90
53264;DHT22;39153;52.680;6.172;2022-07-23T15:51:54;29.20;86.70
53264;DHT22;39153;52.680;6.172;2022-07-23T15:54:20;30.00;88.10
53264;DHT22;39153;52.680;6.172;2022-07-23T15:56:46;30.00;89.20
53264;DHT22;39153;52.680;6.172;2022-07-23T15:59:12;30.40;89.40
53264;DHT22;39153;52.680;6.172;2022-07-23T16:01:38;30.30;86.90
53264;DHT22;39153;52.680;6.172;2022-07-23T16:04:04;30.80;86.50
53264;DHT22;39153;52.680;6.172;2022-07-23T16:06:32;30.30;86.90
53264;DHT22;39153;52.680;6.172;2022-07-23T16:08:58;30.80;85.60
53264;DHT22;39153;52.680;6.172;2022-07-23T16:11:25;30.50;85.00
53264;DHT22;39153;52.680;6.172;2022-07-23T16:13:51;30.20;87.50
53264;DHT22;39153;52.680;6.172;2022-07-23T16:16:17;30.70;84.90
53264;DHT22;39153;52.680;6.172;2022-07-23T16:18:43;31.00;86.80
53264;DHT22;39153;52.680;6.172;2022-07-23T16:21:10;30.60;83.10
53264;DHT22;39153;52.680;6.172;2022-07-23T16:23:35;30.60;83.80
53264;DHT22;39153;52.680;6.172;2022-07-23T16:26:01;30.40;84.00
53264;DHT22;39153;52.680;6.172;2022-07-23T16:28:27;30.40;85.90
53264;DHT22;39153;52.680;6.172;2022-07-23T16:30:52;30.30;84.40